Time;durP1;ratioP1;P1;durP2;ratioP2;P2;SDS_P1;SDS_P2;PMS_P1;PMS_P2;Temp;Humidity;BMP_temperature;BMP_pressure;BME280_temperature;BME280_humidity;BME280_pressure;Samples;Min_cycle;Max_cycle;Signal;HPM_P1;HPM_P2
2021/12/26 00:01:07;;;;;;;36.47;14.13;;;;;;;-2.53;46.52;100869.19;5016078;28;20132;-75
2021/12/26 00:03:34;;;;;;;23.48;11.25;;;;;;;-2.47;46.50;100860.19;5015855;28;20062;-75
2021/12/26 00:06:08;;;;;;;35.20;13.82;;;;;;;-2.34;46.06;100863.91;5014289;28;20077;-75
2021/12/26 00:08:36;;;;;;;27.08;12.35;;;;;;;-2.77;47.57;100855.44;5013735;28;20128;-75
2021/12/26 00:11:04;;;;;;;19.90;10.48;;;;;;;-2.87;48.06;100864.66;5014930;28;20041;-75
2021/12/26 00:13:31;;;;;;;21.75;9.98;;;;;;;-2.69;47.15;100863.81;5015341;28;20176;-75
2021/12/26 00:15:59;;;;;;;20.15;10.18;;;;;;;-2.54;47.10;100862.25;5015524;28;20133;-75
2021/12/26 00:18:27;;;;;;;28.15;10.70;;;;;;;-2.55;46.92;100855.28;5014520;28;20053;-75
2021/12/26 00:20:53;;;;;;;20.95;9.52;;;;;;;-2.54;46.75;100857.00;5014615;28;20375;-75
2021/12/26 00:23:21;;;;;;;22.58;10.23;;;;;;;-2.60;47.01;100859.91;5013538;28;20069;-74
2021/12/26 00:25:48;;;;;;;26.65;9.90;;;;;;;-2.65;47.57;100859.25;5014419;28;20105;-74
2021/12/26 00:28:15;;;;;;;25.80;9.30;;;;;;;-2.69;47.59;100858.56;5014213;28;20554;-74
2021/12/26 00:30:43;;;;;;;19.95;8.02;;;;;;;-2.86;47.95;100859.38;5015119;28;20128;-74
2021/12/26 00:33:10;;;;;;;17.70;8.80;;;;;;;-2.63;47.34;100868.78;5013000;28;20403;-74
2021/12/26 00:35:36;;;;;;;16.98;7.88;;;;;;;-2.66;47.01;100868.06;5012131;28;20461;-74
2021/12/26 00:38:03;;;;;;;19.58;9.25;;;;;;;-2.69;46.93;100869.06;5014706;28;20105;-74
2021/12/26 00:40:32;;;;;;;19.95;8.27;;;;;;;-3.12;48.15;100870.19;5014561;28;20081;-74
2021/12/26 00:42:59;;;;;;;23.77;10.00;;;;;;;-2.88;47.78;100860.34;5013492;28;20050;-74
2021/12/26 00:45:26;;;;;;;20.95;9.55;;;;;;;-2.77;47.07;100865.09;5014041;28;20050;-74
2021/12/26 00:47:52;;;;;;;22.17;8.75;;;;;;;-2.90;47.07;100862.19;5014898;28;20053;-74
2021/12/26 00:50:23;;;;;;;21.90;10.27;;;;;;;-2.78;47.22;100869.50;5012950;28;20071;-74
2021/12/26 00:52:49;;;;;;;21.95;9.52;;;;;;;-2.67;46.82;100869.84;5015288;28;20129;-74
2021/12/26 00:55:18;;;;;;;22.17;10.07;;;;;;;-2.95;47.60;100872.06;5011820;28;20057;-74
2021/12/26 00:57:45;;;;;;;22.17;9.00;;;;;;;-4.16;50.45;100870.25;5013434;28;20109;-74
2021/12/26 01:00:22;;;;;;;19.55;8.75;;;;;;;-3.12;48.40;100868.41;5014442;28;20073;-74
2021/12/26 01:02:49;;;;;;;22.05;9.35;;;;;;;-2.99;47.70;100867.88;5014747;28;20483;-74
2021/12/26 01:05:19;;;;;;;24.98;10.02;;;;;;;-3.49;48.72;100877.03;5014285;28;20169;-76
2021/12/26 01:10:18;;;;;;;25.88;11.75;;;;;;;-3.61;49.22;100875.81;5013491;28;20084;-74
2021/12/26 01:12:45;;;;;;;24.25;12.05;;;;;;;-3.21;48.51;100874.06;5014298;28;20129;-75
2021/12/26 01:15:12;;;;;;;32.30;13.02;;;;;;;-3.26;48.28;100867.34;5013791;28;20054;-75
2021/12/26 01:17:41;;;;;;;27.90;11.20;;;;;;;-3.29;48.44;100869.16;5013875;28;20494;-75
2021/12/26 01:20:17;;;;;;;25.48;10.70;;;;;;;-3.82;49.65;100871.47;5013590;28;20101;-75
2021/12/26 01:22:44;;;;;;;23.80;11.52;;;;;;;-4.06;49.85;100879.44;5013584;28;20090;-75
2021/12/26 01:25:10;;;;;;;24.50;10.27;;;;;;;-3.77;49.42;100896.56;5012666;28;20128;-75
2021/12/26 01:27:37;;;;;;;21.45;9.73;;;;;;;-4.07;50.19;100889.97;5011362;28;20049;-75
2021/12/26 01:30:04;;;;;;;26.35;10.32;;;;;;;-3.90;49.79;100895.38;5011904;28;20056;-75
2021/12/26 01:32:30;;;;;;;21.98;10.13;;;;;;;-4.30;50.35;100891.75;5014744;28;20127;-74
2021/12/26 01:34:57;;;;;;;22.25;10.55;;;;;;;-4.33;50.87;100891.88;5015801;28;20133;-75
2021/12/26 01:37:23;;;;;;;31.67;11.23;;;;;;;-3.89;49.64;100881.38;5015329;28;20084;-75
2021/12/26 01:39:50;;;;;;;28.50;11.10;;;;;;;-3.70;48.90;100886.69;5010005;28;20129;-75
2021/12/26 01:42:17;;;;;;;27.58;10.25;;;;;;;-3.49;48.60;100884.91;5017185;28;20077;-75
2021/12/26 01:44:43;;;;;;;29.88;11.80;;;;;;;-3.53;48.69;100884.19;5017416;28;20141;-75
2021/12/26 01:47:10;;;;;;;29.67;11.15;;;;;;;-3.26;48.11;100872.56;5016309;28;20096;-75
2021/12/26 01:49:37;;;;;;;21.63;11.38;;;;;;;-3.67;49.01;100880.47;5016988;28;20049;-75
2021/12/26 01:52:05;;;;;;;28.20;12.38;;;;;;;-3.36;48.09;100886.09;5017367;28;20492;-75
2021/12/26 01:55:01;;;;;;;27.13;11.35;;;;;;;-3.36;48.06;100872.97;5017280;28;20469;-75
2021/12/26 01:57:24;;;;;;;28.65;12.30;;;;;;;-3.36;47.76;100878.22;5012351;28;20128;-75
2021/12/26 01:59:51;;;;;;;24.40;11.15;;;;;;;-3.23;47.67;100880.31;5016633;28;20049;-75
2021/12/26 02:02:17;;;;;;;22.65;11.13;;;;;;;-3.44;47.86;100876.88;5016650;28;20119;-75
2021/12/26 02:04:44;;;;;;;24.35;11.18;;;;;;;-3.55;48.30;100877.31;5016964;28;20479;-75
2021/12/26 02:07:23;;;;;;;28.73;11.40;;;;;;;-3.61;48.52;100878.44;5017514;28;20532;-75
2021/12/26 02:09:49;;;;;;;30.27;12.10;;;;;;;-3.62;48.71;100870.63;5016579;28;20077;-75
2021/12/26 02:12:16;;;;;;;27.23;11.63;;;;;;;-3.26;47.88;100870.81;5017747;28;20128;-74
2021/12/26 02:14:42;;;;;;;26.60;11.00;;;;;;;-3.26;47.85;100877.81;5016719;28;20109;-75
2021/12/26 02:17:09;;;;;;;28.15;12.40;;;;;;;-3.20;47.55;100878.41;5016471;28;20113;-75
2021/12/26 02:19:35;;;;;;;28.17;12.50;;;;;;;-3.21;47.74;100875.84;5016281;28;20530;-75
2021/12/26 02:22:09;;;;;;;29.45;12.13;;;;;;;-3.44;47.83;100880.34;5014420;28;20129;-75
2021/12/26 02:24:56;;;;;;;28.55;12.48;;;;;;;-3.44;47.79;100875.09;5006049;28;20061;-75
2021/12/26 02:27:32;;;;;;;29.35;11.88;;;;;;;-3.39;48.11;100885.38;5016278;28;20054;-75
2021/12/26 02:30:13;;;;;;;25.50;12.35;;;;;;;-3.37;47.85;100886.16;5015620;28;20069;-75
2021/12/26 02:32:39;;;;;;;24.77;12.18;;;;;;;-3.48;48.35;100883.13;5016053;28;20069;-75
2021/12/26 02:35:07;;;;;;;27.23;11.20;;;;;;;-3.45;48.37;100878.59;5016322;28;20129;-75
2021/12/26 02:37:33;;;;;;;23.35;11.27;;;;;;;-3.39;48.09;100874.88;5014122;28;20074;-75
2021/12/26 02:39:59;;;;;;;23.20;11.70;;;;;;;-3.39;48.04;100878.34;5015104;28;20052;-75
2021/12/26 02:42:26;;;;;;;24.50;11.48;;;;;;;-3.59;48.50;100866.09;5016561;28;20050;-75
2021/12/26 02:44:53;;;;;;;27.13;11.60;;;;;;;-3.50;48.38;100869.25;5015313;28;20473;-75
2021/12/26 02:47:40;;;;;;;23.58;10.90;;;;;;;-3.67;48.94;100867.34;5017136;28;20108;-75
2021/12/26 02:50:22;;;;;;;26.65;10.82;;;;;;;-3.67;48.81;100867.34;5014974;28;20052;-75
2021/12/26 02:52:49;;;;;;;21.45;10.55;;;;;;;-3.54;48.63;100858.03;5015470;28;20061;-75
2021/12/26 02:55:18;;;;;;;28.15;11.25;;;;;;;-3.34;48.33;100860.66;5015608;28;20065;-75
2021/12/26 02:57:47;;;;;;;27.55;12.02;;;;;;;-3.21;47.73;100860.94;5014918;28;20046;-75
2021/12/26 03:00:16;;;;;;;29.13;11.85;;;;;;;-3.21;47.87;100868.81;5015733;28;20073;-75
2021/12/26 03:02:44;;;;;;;23.67;10.73;;;;;;;-3.21;47.50;100871.44;5031458;28;20117;-75
2021/12/26 03:05:11;;;;;;;26.90;10.82;;;;;;;-3.20;47.60;100862.66;5015857;28;20049;-75
2021/12/26 03:07:38;;;;;;;25.55;12.15;;;;;;;-3.26;47.63;100870.81;5016079;28;20066;-75
2021/12/26 03:10:09;;;;;;;22.23;10.15;;;;;;;-3.24;47.50;100874.19;5016165;28;20538;-75
2021/12/26 03:12:40;;;;;;;28.67;10.75;;;;;;;-3.33;47.62;100879.88;5015652;28;20046;-75
2021/12/26 03:15:10;;;;;;;23.00;10.33;;;;;;;-3.47;48.43;100869.97;5015075;28;20466;-74
2021/12/26 03:17:37;;;;;;;22.52;10.57;;;;;;;-3.48;48.73;100870.91;5016192;28;20281;-74
2021/12/26 03:20:09;;;;;;;21.25;9.35;;;;;;;-3.66;48.94;100861.19;5016924;28;20487;-74
2021/12/26 03:22:36;;;;;;;21.85;9.77;;;;;;;-3.75;49.23;100859.81;5016763;28;20550;-75
2021/12/26 03:25:05;;;;;;;22.02;10.13;;;;;;;-3.41;48.54;100869.72;5015822;28;20073;-75
2021/12/26 03:27:31;;;;;;;25.83;10.95;;;;;;;-3.28;47.89;100864.75;5014155;28;20084;-75
2021/12/26 03:29:58;;;;;;;24.42;11.13;;;;;;;-3.41;47.99;100859.22;5015361;28;20482;-75
2021/12/26 03:32:24;;;;;;;25.00;10.80;;;;;;;-3.55;48.48;100857.19;5014972;28;20133;-74
2021/12/26 03:34:50;;;;;;;27.48;11.25;;;;;;;-3.26;47.53;100859.47;5015726;28;20053;-74
2021/12/26 03:37:18;;;;;;;22.90;11.27;;;;;;;-3.28;47.50;100862.97;5014692;28;20044;-74
2021/12/26 03:39:44;;;;;;;24.85;11.70;;;;;;;-3.20;47.62;100861.81;5012762;28;20434;-74
2021/12/26 03:42:11;;;;;;;24.50;10.70;;;;;;;-3.28;47.79;100855.09;5014055;28;20073;-74
2021/12/26 03:44:37;;;;;;;26.60;11.48;;;;;;;-3.30;47.55;100859.59;5014601;28;20053;-74
2021/12/26 03:47:04;;;;;;;23.00;11.77;;;;;;;-3.22;47.52;100863.66;5014849;28;20132;-74
2021/12/26 03:49:31;;;;;;;22.02;10.40;;;;;;;-3.34;47.70;100859.81;5014694;28;20114;-75
2021/12/26 03:51:57;;;;;;;23.63;11.40;;;;;;;-3.38;47.89;100864.31;5014119;28;20133;-75
2021/12/26 03:54:24;;;;;;;30.83;12.25;;;;;;;-3.60;48.12;100859.16;5014546;28;20501;-75
2021/12/26 03:56:50;;;;;;;27.08;11.68;;;;;;;-3.43;48.22;100862.81;5015572;28;20453;-74
2021/12/26 03:59:17;;;;;;;31.50;12.05;;;;;;;-3.43;47.92;100854.94;5013973;28;20076;-75
2021/12/26 04:01:43;;;;;;;22.58;11.15;;;;;;;-3.45;47.95;100862.03;5013765;28;20492;-75
2021/12/26 04:04:10;;;;;;;23.85;11.93;;;;;;;-3.45;47.88;100854.16;5014091;28;20072;-75
2021/12/26 04:06:38;;;;;;;30.52;11.95;;;;;;;-3.49;47.88;100857.84;5013567;28;20041;-75
2021/12/26 04:09:07;;;;;;;26.73;11.95;;;;;;;-3.45;48.00;100862.03;5013203;28;20141;-75
2021/12/26 04:11:35;;;;;;;27.08;11.40;;;;;;;-3.49;48.07;100861.31;5027890;28;20133;-75
2021/12/26 04:14:03;;;;;;;26.80;10.93;;;;;;;-3.48;47.84;100863.03;5012636;28;20132;-75
2021/12/26 04:16:29;;;;;;;25.13;11.77;;;;;;;-3.49;48.15;100865.69;4995251;28;20114;-75
2021/12/26 04:18:55;;;;;;;26.83;12.05;;;;;;;-3.53;47.69;100868.47;4994746;28;20483;-75
2021/12/26 04:21:22;;;;;;;29.58;11.82;;;;;;;-3.65;48.09;100889.97;4994854;28;20446;-75
2021/12/26 04:23:48;;;;;;;26.63;12.05;;;;;;;-3.59;47.74;100876.59;4992532;28;20077;-75
2021/12/26 04:26:15;;;;;;;27.00;12.35;;;;;;;-4.02;48.74;100882.78;4994185;28;20051;-75
2021/12/26 04:28:42;;;;;;;34.13;11.18;;;;;;;-4.19;49.19;100880.00;4994111;28;20149;-75
2021/12/26 04:31:08;;;;;;;26.67;10.80;;;;;;;-4.13;49.05;100879.75;4993083;28;20053;-75
2021/12/26 04:33:34;;;;;;;24.38;10.57;;;;;;;-4.26;48.85;100880.25;4993956;28;20050;-75
2021/12/26 04:36:01;;;;;;;33.88;11.10;;;;;;;-4.32;49.54;100883.09;5002099;28;20494;-75
2021/12/26 04:38:28;;;;;;;26.95;11.60;;;;;;;-4.09;48.63;100876.09;5013286;28;20129;-75
2021/12/26 04:40:54;;;;;;;23.83;10.40;;;;;;;-4.33;49.22;100870.94;5013932;28;20129;-75
2021/12/26 04:43:22;;;;;;;25.10;11.35;;;;;;;-4.08;48.00;100873.41;5014442;28;20136;-75
2021/12/26 04:45:49;;;;;;;27.30;11.43;;;;;;;-4.07;48.10;100872.50;5013919;28;20403;-75
2021/12/26 04:48:16;;;;;;;26.20;11.55;;;;;;;-4.07;48.12;100864.66;5014225;28;20482;-75
2021/12/26 04:50:43;;;;;;;25.65;10.65;;;;;;;-4.00;47.83;100860.00;5013942;28;20049;-75
2021/12/26 04:53:10;;;;;;;26.70;10.93;;;;;;;-4.03;47.65;100863.59;5013053;28;20117;-75
2021/12/26 04:55:37;;;;;;;29.05;12.05;;;;;;;-3.97;47.53;100857.22;5013447;28;20081;-75
2021/12/26 04:58:04;;;;;;;25.52;11.32;;;;;;;-4.35;48.62;100851.78;5013290;28;20550;-75
2021/12/26 05:00:32;;;;;;;27.80;10.88;;;;;;;-4.40;48.79;100851.13;5013235;28;20073;-75
2021/12/26 05:03:03;;;;;;;22.77;10.80;;;;;;;-4.50;49.17;100847.19;5014655;28;20057;-75
2021/12/26 05:05:32;;;;;;;25.42;10.80;;;;;;;-4.42;48.81;100845.09;5012532;28;20073;-74
2021/12/26 05:07:58;;;;;;;31.35;11.77;;;;;;;-4.59;48.52;100844.91;5013354;28;20522;-75
2021/12/26 05:10:28;;;;;;;24.60;10.10;;;;;;;-4.58;48.96;100846.63;5017664;28;20451;-75
2021/12/26 05:12:58;;;;;;;28.50;10.98;;;;;;;-4.63;49.52;100848.56;5016831;28;20068;-75
2021/12/26 05:15:24;;;;;;;20.85;9.73;;;;;;;-4.62;50.40;100850.28;5016794;28;20116;-75
2021/12/26 05:17:52;;;;;;;23.48;10.07;;;;;;;-4.56;49.99;100844.78;5018056;28;20121;-75
2021/12/26 05:20:20;;;;;;;23.77;10.32;;;;;;;-4.31;49.66;100848.16;5016573;28;20049;-75
2021/12/26 05:22:48;;;;;;;30.30;11.48;;;;;;;-4.35;49.49;100849.16;5015752;28;20543;-75
2021/12/26 05:25:15;;;;;;;23.58;10.02;;;;;;;-4.18;49.73;100851.09;5016527;28;20162;-75
2021/12/26 05:27:42;;;;;;;28.88;11.05;;;;;;;-4.10;49.31;100856.91;5017051;28;20054;-75
2021/12/26 05:30:12;;;;;;;26.60;10.10;;;;;;;-3.96;49.15;100851.09;5016477;28;20092;-75
2021/12/26 05:32:41;;;;;;;25.58;11.18;;;;;;;-4.40;49.08;100851.13;5017771;28;20141;-75
2021/12/26 05:35:08;;;;;;;26.40;10.68;;;;;;;-4.40;49.12;100858.16;5017306;28;20478;-75
2021/12/26 05:37:35;;;;;;;26.00;9.85;;;;;;;-4.34;48.71;100865.75;5018111;28;20569;-75
2021/12/26 05:40:03;;;;;;;23.63;10.05;;;;;;;-4.21;48.40;100860.88;5017124;28;20042;-75
2021/12/26 05:42:31;;;;;;;23.40;10.27;;;;;;;-4.28;48.31;100857.63;5017659;28;20049;-75
2021/12/26 05:44:58;;;;;;;24.85;10.10;;;;;;;-4.43;48.78;100855.66;5017756;28;20133;-75
2021/12/26 05:47:25;;;;;;;25.88;10.30;;;;;;;-4.34;48.34;100852.66;5016755;28;20060;-75
2021/12/26 05:49:52;;;;;;;24.60;10.10;;;;;;;-4.57;49.01;100843.09;5016607;28;20045;-75
2021/12/26 05:52:19;;;;;;;20.13;8.63;;;;;;;-4.44;48.80;100841.69;5016551;28;20053;-75
2021/12/26 05:54:47;;;;;;;21.88;10.10;;;;;;;-4.56;49.07;100843.03;5016379;28;20093;-75
2021/12/26 05:57:15;;;;;;;21.85;9.63;;;;;;;-4.38;48.65;100859.78;5015344;28;20060;-75
2021/12/26 05:59:42;;;;;;;22.33;9.95;;;;;;;-4.38;48.71;100853.69;5014734;28;20133;-75
2021/12/26 06:02:08;;;;;;;26.98;9.90;;;;;;;-4.61;49.38;100846.75;5016168;28;20137;-75
2021/12/26 06:04:36;;;;;;;19.13;9.20;;;;;;;-4.39;48.76;100844.97;5016119;28;20049;-75
2021/12/26 06:07:03;;;;;;;19.85;8.88;;;;;;;-4.35;48.30;100843.94;5016205;28;20065;-75
2021/12/26 06:09:29;;;;;;;25.20;10.27;;;;;;;-4.41;48.27;100843.34;5016890;28;20053;-75
2021/12/26 06:11:56;;;;;;;30.10;11.63;;;;;;;-4.69;49.76;100849.69;5016884;28;20065;-75
2021/12/26 06:14:23;;;;;;;29.33;9.80;;;;;;;-4.58;49.07;100847.47;5015783;28;20168;-75
2021/12/26 06:16:49;;;;;;;23.27;9.15;;;;;;;-4.61;49.13;100847.59;5015976;28;20538;-75
2021/12/26 06:19:16;;;;;;;24.52;9.07;;;;;;;-4.40;48.91;100845.91;5016056;28;20077;-75
2021/12/26 06:21:42;;;;;;;21.60;8.55;;;;;;;-4.41;47.87;100838.13;5014309;28;20506;-75
2021/12/26 06:24:08;;;;;;;18.45;8.90;;;;;;;-4.28;48.11;100834.06;5016592;28;20048;-75
2021/12/26 06:26:35;;;;;;;22.40;9.57;;;;;;;-4.96;49.00;100841.13;5015573;28;20046;-75
2021/12/26 06:29:03;;;;;;;21.75;8.48;;;;;;;-5.40;50.32;100830.53;5016045;28;20506;-75
2021/12/26 06:31:30;;;;;;;17.85;8.10;;;;;;;-5.22;50.34;100839.47;5015834;28;20070;-75
2021/12/26 06:33:56;;;;;;;20.85;9.02;;;;;;;-4.83;49.49;100847.59;5015728;28;20061;-75
2021/12/26 06:36:23;;;;;;;26.75;8.68;;;;;;;-4.90;48.98;100840.00;5017123;28;20054;-75
2021/12/26 06:38:49;;;;;;;21.63;8.18;;;;;;;-4.72;48.80;100848.03;5016796;28;20070;-75
2021/12/26 06:41:16;;;;;;;23.05;8.90;;;;;;;-5.10;49.41;100857.34;5005394;28;20145;-75
2021/12/26 06:43:43;;;;;;;25.10;8.43;;;;;;;-4.69;48.67;100861.88;5013989;28;20046;-75
2021/12/26 06:46:09;;;;;;;24.17;8.45;;;;;;;-4.68;48.23;100855.75;5014374;28;20559;-75
2021/12/26 06:48:38;;;;;;;25.58;8.52;;;;;;;-4.73;48.61;100861.16;5015571;28;20056;-75
2021/12/26 06:51:05;;;;;;;23.25;7.75;;;;;;;-4.57;48.01;100848.34;5013415;28;20077;-76
2021/12/26 06:53:31;;;;;;;22.33;7.65;;;;;;;-4.84;48.95;100855.47;5015444;28;20431;-76
2021/12/26 06:55:58;;;;;;;20.83;8.35;;;;;;;-4.64;48.84;100852.97;5015079;28;20129;-76
2021/12/26 06:58:24;;;;;;;19.73;7.78;;;;;;;-4.62;48.37;100845.06;5015712;28;20058;-76
2021/12/26 07:00:51;;;;;;;19.63;7.60;;;;;;;-4.76;48.45;100841.22;5016816;28;20069;-75
2021/12/26 07:03:18;;;;;;;18.90;7.07;;;;;;;-4.70;48.28;100849.72;5014968;28;20045;-75
2021/12/26 07:05:45;;;;;;;26.38;7.43;;;;;;;-4.83;48.57;100846.72;5015300;28;20558;-75
2021/12/26 07:08:11;;;;;;;21.95;7.85;;;;;;;-4.81;48.46;100856.22;5015448;28;20141;-75
2021/12/26 07:10:38;;;;;;;16.80;7.65;;;;;;;-4.86;48.56;100862.56;5008540;28;20050;-75
2021/12/26 07:13:04;;;;;;;13.77;6.95;;;;;;;-4.96;48.94;100867.28;5014374;28;20465;-75
2021/12/26 07:15:31;;;;;;;17.25;7.68;;;;;;;-4.60;47.85;100874.63;5014199;28;20140;-75
2021/12/26 07:17:57;;;;;;;18.83;7.97;;;;;;;-4.60;47.73;100874.63;5015126;28;20125;-75
2021/12/26 07:20:24;;;;;;;19.35;8.05;;;;;;;-4.75;48.29;100866.47;5014371;28;20077;-75
2021/12/26 07:22:50;;;;;;;17.70;8.07;;;;;;;-4.73;47.94;100858.53;5015074;28;20375;-75
2021/12/26 07:25:17;;;;;;;22.05;8.60;;;;;;;-4.61;47.88;100862.47;5009898;28;20064;-75
2021/12/26 07:27:43;;;;;;;21.55;8.15;;;;;;;-4.60;47.69;100859.78;5013300;28;20050;-76
2021/12/26 07:30:10;;;;;;;26.48;9.15;;;;;;;-4.58;47.94;100871.06;5015007;28;20069;-76
2021/12/26 07:32:37;;;;;;;23.88;7.97;;;;;;;-4.60;48.02;100870.25;5012868;28;20121;-76
2021/12/26 07:35:04;;;;;;;22.88;8.00;;;;;;;-4.70;48.49;100873.28;5010426;28;20402;-76
2021/12/26 07:37:30;;;;;;;21.48;8.18;;;;;;;-4.60;48.27;100874.63;5015186;28;20455;-76
2021/12/26 07:39:57;;;;;;;20.27;8.13;;;;;;;-4.89;48.67;100876.59;5014485;28;20085;-76
2021/12/26 07:42:23;;;;;;;22.02;7.35;;;;;;;-5.46;49.80;100878.66;5014488;28;20046;-76
2021/12/26 07:44:50;;;;;;;22.15;8.38;;;;;;;-5.68;50.46;100880.31;5014459;28;20532;-76
2021/12/26 07:47:16;;;;;;;17.05;7.93;;;;;;;-5.45;50.42;100890.00;5014302;28;20042;-76
2021/12/26 07:49:43;;;;;;;21.92;8.65;;;;;;;-5.62;50.83;100892.34;5012381;28;20069;-76
2021/12/26 07:52:17;;;;;;;20.30;8.77;;;;;;;-5.75;50.76;100891.88;5004978;28;20521;-75
2021/12/26 07:54:44;;;;;;;22.27;7.95;;;;;;;-5.83;50.56;100894.75;5014792;28;20072;-75
2021/12/26 07:57:12;;;;;;;24.00;8.05;;;;;;;-5.68;50.68;100893.38;5014206;28;20069;-76
2021/12/26 07:59:38;;;;;;;23.50;8.60;;;;;;;-5.53;50.82;100899.84;5009834;28;20135;-75
2021/12/26 08:02:05;;;;;;;19.35;8.35;;;;;;;-5.53;50.59;100899.84;5015018;28;20109;-76
2021/12/26 08:04:31;;;;;;;21.45;8.48;;;;;;;-5.52;50.70;100898.97;5015050;28;20145;-76
2021/12/26 08:06:59;;;;;;;20.83;8.52;;;;;;;-5.56;50.41;100897.31;5013151;28;20124;-76
2021/12/26 08:09:27;;;;;;;22.63;8.10;;;;;;;-5.41;50.44;100888.97;5013701;28;20050;-76
2021/12/26 08:11:53;;;;;;;16.95;7.80;;;;;;;-5.45;50.40;100890.00;5013268;28;20074;-76
2021/12/26 08:14:20;;;;;;;24.35;9.38;;;;;;;-5.93;51.21;100890.75;5015035;28;20062;-76
2021/12/26 08:16:48;;;;;;;18.88;8.32;;;;;;;-5.52;50.86;100880.66;5016420;28;20137;-76
2021/12/26 08:19:14;;;;;;;20.92;8.80;;;;;;;-5.55;50.52;100883.38;5016015;28;20100;-76
2021/12/26 08:21:41;;;;;;;24.02;7.55;;;;;;;-5.64;50.97;100883.69;5015341;28;20068;-76
2021/12/26 08:24:07;;;;;;;19.13;7.78;;;;;;;-5.83;51.50;100886.94;5025424;28;20142;-75
2021/12/26 08:26:35;;;;;;;24.30;8.55;;;;;;;-6.03;52.02;100884.97;5016195;28;20050;-76
2021/12/26 08:29:01;;;;;;;27.50;8.88;;;;;;;-5.96;52.02;100893.47;5015246;28;20041;-76
2021/12/26 08:31:29;;;;;;;25.27;9.70;;;;;;;-5.73;51.70;100906.63;5015115;28;20509;-76
2021/12/26 08:33:55;;;;;;;22.83;9.13;;;;;;;-5.57;51.55;100900.84;5013270;28;20066;-76
2021/12/26 08:36:22;;;;;;;26.38;8.85;;;;;;;-5.79;51.75;100900.75;5013847;28;20133;-76
2021/12/26 08:38:49;;;;;;;30.20;9.63;;;;;;;-6.37;53.29;100913.06;5013391;28;20066;-76
2021/12/26 08:41:15;;;;;;;20.33;8.32;;;;;;;-6.31;53.48;100911.13;5017074;28;20123;-76
2021/12/26 08:43:43;;;;;;;28.35;8.77;;;;;;;-6.28;53.28;100910.19;5019412;28;20062;-76
2021/12/26 08:46:11;;;;;;;26.55;9.27;;;;;;;-6.22;53.31;100921.28;5018998;28;20101;-75
2021/12/26 08:48:38;;;;;;;25.40;8.77;;;;;;;-6.09;53.12;100916.50;5019017;28;20054;-75
2021/12/26 08:51:05;;;;;;;21.77;8.15;;;;;;;-5.94;53.28;100912.53;5020164;28;20177;-77
2021/12/26 08:53:31;;;;;;;23.08;8.88;;;;;;;-5.42;52.12;100913.41;5020040;28;20049;-77
2021/12/26 08:55:59;;;;;;;28.98;9.90;;;;;;;-5.10;51.32;100921.88;5017153;28;20066;-76
2021/12/26 08:58:26;;;;;;;27.55;8.85;;;;;;;-5.41;51.70;100922.09;5016066;28;20060;-77
2021/12/26 09:00:52;;;;;;;22.88;8.98;;;;;;;-5.50;51.85;100921.50;5018458;28;20469;-76
2021/12/26 09:03:19;;;;;;;27.55;9.20;;;;;;;-5.62;52.99;100926.31;5017329;28;20076;-76
2021/12/26 09:05:46;;;;;;;23.90;8.82;;;;;;;-5.67;52.52;100929.91;5017859;28;20045;-76
2021/12/26 09:08:12;;;;;;;25.77;8.82;;;;;;;-6.05;53.62;100922.47;5017792;28;20098;-76
2021/12/26 09:10:40;;;;;;;24.35;8.75;;;;;;;-5.36;52.01;100907.94;5018888;28;20144;-75
2021/12/26 09:13:07;;;;;;;26.80;9.20;;;;;;;-5.00;51.12;100908.41;5018464;28;20463;-77
2021/12/26 09:15:35;;;;;;;26.40;9.95;;;;;;;-4.81;50.63;100908.56;5016594;28;20081;-77
2021/12/26 09:18:03;;;;;;;26.60;9.65;;;;;;;-4.48;49.90;100908.22;5017938;28;20065;-77
2021/12/26 09:20:29;;;;;;;32.30;10.50;;;;;;;-4.15;49.10;100915.63;5018526;28;20129;-77
2021/12/26 09:22:56;;;;;;;27.80;10.38;;;;;;;-4.38;49.42;100916.53;5016929;28;20053;-78
2021/12/26 09:25:23;;;;;;;28.90;10.73;;;;;;;-4.87;49.45;100918.41;5016362;28;20502;-77
2021/12/26 09:27:49;;;;;;;33.92;11.43;;;;;;;-5.24;49.67;100922.38;5016796;28;20070;-77
2021/12/26 09:30:16;;;;;;;32.58;11.75;;;;;;;-4.18;47.93;100923.63;5018647;28;20049;-77
2021/12/26 09:32:43;;;;;;;28.70;10.65;;;;;;;-3.85;47.05;100927.50;5018131;28;20076;-77
2021/12/26 09:35:11;;;;;;;27.65;11.35;;;;;;;-3.68;46.38;100918.09;5018794;28;20065;-77
2021/12/26 09:37:37;;;;;;;30.00;10.57;;;;;;;-3.61;46.16;100924.78;5017279;28;20054;-77
2021/12/26 09:40:05;;;;;;;26.75;10.48;;;;;;;-3.59;46.09;100912.44;5018909;28;20045;-77
2021/12/26 09:42:33;;;;;;;31.30;11.35;;;;;;;-3.75;45.42;100919.28;5016916;28;20104;-78
2021/12/26 09:45:01;;;;;;;29.42;9.80;;;;;;;-3.79;44.99;100913.31;5008437;28;20080;-77
2021/12/26 09:47:28;;;;;;;25.42;9.13;;;;;;;-3.44;44.11;100911.81;5001299;28;20049;-80
2021/12/26 09:49:55;;;;;;;27.38;10.40;;;;;;;-3.48;43.91;100915.50;5015576;28;20087;-77
2021/12/26 09:52:21;;;;;;;24.95;9.98;;;;;;;-3.69;44.06;100913.75;5015277;28;20073;-76
2021/12/26 09:54:48;;;;;;;25.42;10.20;;;;;;;-2.87;42.61;100906.66;5016069;28;20045;-77
2021/12/26 09:57:14;;;;;;;28.45;10.52;;;;;;;-2.79;41.68;100911.56;5017173;28;20123;-76
2021/12/26 09:59:43;;;;;;;34.97;13.60;;;;;;;-2.81;41.38;100916.91;5017756;28;20048;-77
2021/12/26 10:02:14;;;;;;;26.65;10.75;;;;;;;-2.26;41.08;100910.84;5015848;28;20868;-77
2021/12/26 10:04:48;;;;;;;25.20;10.48;;;;;;;-2.16;39.30;100909.50;5016682;28;20049;-77
2021/12/26 10:07:23;;;;;;;18.77;8.30;;;;;;;-1.40;38.77;100902.19;5013447;28;20057;-78
2021/12/26 10:09:51;;;;;;;25.85;10.00;;;;;;;-0.97;37.48;100898.16;5016211;28;20061;-77
2021/12/26 10:12:20;;;;;;;21.27;9.43;;;;;;;-0.69;37.53;100894.88;5015348;28;20046;-77
2021/12/26 10:14:52;;;;;;;22.30;10.13;;;;;;;-0.30;36.67;100893.59;5015058;28;20105;-77
2021/12/26 10:17:25;;;;;;;18.08;8.38;;;;;;;0.42;35.32;100891.25;5014937;28;20073;-76
2021/12/26 10:20:00;;;;;;;19.45;9.18;;;;;;;0.56;34.96;100895.72;5017329;28;20042;-77
2021/12/26 10:22:28;;;;;;;22.25;8.93;;;;;;;-0.32;35.52;100889.38;5017245;28;20069;-77
2021/12/26 10:24:56;;;;;;;25.38;9.82;;;;;;;-0.79;36.09;100880.50;5015394;28;20383;-78
2021/12/26 10:27:31;;;;;;;20.65;9.68;;;;;;;-0.96;36.56;100877.94;5016092;28;20081;-77
2021/12/26 10:30:03;;;;;;;24.10;10.05;;;;;;;-1.01;36.52;100880.81;5013954;28;20046;-77
2021/12/26 10:32:38;;;;;;;18.15;7.93;;;;;;;-0.44;36.04;100877.72;5015816;28;20476;-78
2021/12/26 10:35:16;;;;;;;21.95;9.45;;;;;;;-0.22;35.63;100872.94;5014007;28;20132;-76
2021/12/26 10:37:46;;;;;;;21.05;8.70;;;;;;;0.55;33.59;100879.03;5015976;28;20057;-76
2021/12/26 10:40:17;;;;;;;15.25;7.90;;;;;;;-0.04;34.15;100868.41;5013281;28;20042;-75
2021/12/26 10:42:46;;;;;;;19.42;10.00;;;;;;;0.45;33.35;100867.31;5014674;28;20045;-77
2021/12/26 10:45:21;;;;;;;18.08;8.57;;;;;;;-0.20;32.97;100862.31;5015478;28;20460;-77
2021/12/26 10:47:54;;;;;;;21.73;8.70;;;;;;;-0.42;34.49;100858.25;5014351;28;20045;-76
2021/12/26 10:50:23;;;;;;;27.05;10.40;;;;;;;0.54;33.10;100853.59;5013503;28;20065;-76
2021/12/26 10:52:58;;;;;;;21.58;9.18;;;;;;;0.59;32.90;100853.28;5015532;28;20066;-77
2021/12/26 10:55:38;;;;;;;21.90;10.02;;;;;;;-0.26;32.70;100855.59;5014898;28;20077;-77
2021/12/26 10:58:10;;;;;;;25.13;8.93;;;;;;;-0.53;34.06;100849.25;5014513;28;20052;-76
2021/12/26 11:00:40;;;;;;;18.90;9.00;;;;;;;-0.24;33.05;100850.22;5014794;28;20050;-76
2021/12/26 11:03:11;;;;;;;19.70;8.75;;;;;;;-0.25;33.30;100843.28;5008627;28;20137;-76
2021/12/26 11:05:43;;;;;;;22.00;8.57;;;;;;;-0.47;33.56;100844.50;5013404;28;20137;-77
2021/12/26 11:08:41;;;;;;;21.70;8.75;;;;;;;-0.47;32.53;100843.63;5013356;28;20049;-77
2021/12/26 11:11:18;;;;;;;17.23;8.27;;;;;;;-0.30;32.38;100843.50;5013961;28;20029;-77
2021/12/26 11:13:46;;;;;;;20.42;8.70;;;;;;;-0.07;32.81;100846.63;5014816;28;20030;-77
2021/12/26 11:16:14;;;;;;;20.75;8.65;;;;;;;-0.40;32.64;100852.03;5014986;28;20042;-77
2021/12/26 11:18:41;;;;;;;19.00;8.45;;;;;;;-0.47;32.65;100844.50;5018595;28;20092;-77
2021/12/26 11:21:14;;;;;;;19.70;8.60;;;;;;;-0.30;32.63;100846.16;5014589;28;20065;-77